Terminal Aerodrome Forecast
Issued by NWS

Home | Current Version | Previous Version | Text Only | Print | Product List | Glossary On
Versions: 1 2 3 4 5 6 7 8 9 10 11 12 13 14 15
720
FTUS42 KGSP 291733
TAFAND
TAF
KAND 291733Z 2918/3018 03009KT P6SM SCT030 BKN100
     FM292300 04006KT P6SM FEW040 BKN100
     FM300100 04003KT P6SM SCT100
     FM301500 05007KT P6SM FEW040 SCT120=

USA.gov is the U.S. government's official web portal to all federal, state and local government web resources and services.